sensor_id;sensor_type;location;lat;lon;timestamp;P1;durP1;ratioP1;P2;durP2;ratioP2
49340;SDS011;35209;51.050;13.678;2022-07-10T00:04:23;3.38;;;0.90;;
49340;SDS011;35209;51.050;13.678;2022-07-10T00:09:25;4.00;;;0.75;;
49340;SDS011;35209;51.050;13.678;2022-07-10T00:14:29;3.75;;;0.95;;
49340;SDS011;35209;51.050;13.678;2022-07-10T00:19:30;3.17;;;0.80;;
49340;SDS011;35209;51.050;13.678;2022-07-10T00:24:32;3.45;;;0.90;;
49340;SDS011;35209;51.050;13.678;2022-07-10T00:29:34;2.58;;;0.80;;
49340;SDS011;35209;51.050;13.678;2022-07-10T00:34:35;2.33;;;0.80;;
49340;SDS011;35209;51.050;13.678;2022-07-10T00:39:38;1.98;;;0.60;;
49340;SDS011;35209;51.050;13.678;2022-07-10T00:44:40;4.63;;;0.73;;
49340;SDS011;35209;51.050;13.678;2022-07-10T00:49:42;2.67;;;0.60;;
49340;SDS011;35209;51.050;13.678;2022-07-10T00:54:45;5.80;;;1.08;;
49340;SDS011;35209;51.050;13.678;2022-07-10T00:59:49;2.95;;;0.90;;
49340;SDS011;35209;51.050;13.678;2022-07-10T01:04:51;2.60;;;0.70;;
49340;SDS011;35209;51.050;13.678;2022-07-10T01:09:53;3.78;;;0.90;;
49340;SDS011;35209;51.050;13.678;2022-07-10T01:14:54;3.13;;;0.80;;
49340;SDS011;35209;51.050;13.678;2022-07-10T01:19:56;2.30;;;0.60;;
49340;SDS011;35209;51.050;13.678;2022-07-10T01:24:58;6.60;;;0.80;;
49340;SDS011;35209;51.050;13.678;2022-07-10T01:30:00;3.05;;;0.73;;
49340;SDS011;35209;51.050;13.678;2022-07-10T01:35:01;3.15;;;0.90;;
49340;SDS011;35209;51.050;13.678;2022-07-10T01:40:03;3.92;;;0.77;;
49340;SDS011;35209;51.050;13.678;2022-07-10T01:45:06;3.13;;;0.82;;
49340;SDS011;35209;51.050;13.678;2022-07-10T01:50:09;3.97;;;0.95;;
49340;SDS011;35209;51.050;13.678;2022-07-10T01:55:11;3.60;;;0.70;;
49340;SDS011;35209;51.050;13.678;2022-07-10T02:00:13;4.80;;;0.90;;
49340;SDS011;35209;51.050;13.678;2022-07-10T02:05:14;3.25;;;0.63;;
49340;SDS011;35209;51.050;13.678;2022-07-10T02:10:16;3.03;;;0.88;;
49340;SDS011;35209;51.050;13.678;2022-07-10T02:15:18;3.20;;;0.60;;
49340;SDS011;35209;51.050;13.678;2022-07-10T02:20:19;5.13;;;0.70;;
49340;SDS011;35209;51.050;13.678;2022-07-10T02:25:21;5.80;;;0.93;;
49340;SDS011;35209;51.050;13.678;2022-07-10T02:30:23;3.65;;;0.77;;
49340;SDS011;35209;51.050;13.678;2022-07-10T02:35:24;3.17;;;0.80;;
49340;SDS011;35209;51.050;13.678;2022-07-10T02:40:26;2.53;;;0.73;;
49340;SDS011;35209;51.050;13.678;2022-07-10T02:45:27;2.20;;;0.45;;
49340;SDS011;35209;51.050;13.678;2022-07-10T02:50:29;4.05;;;0.90;;
49340;SDS011;35209;51.050;13.678;2022-07-10T02:55:31;3.85;;;1.15;;
49340;SDS011;35209;51.050;13.678;2022-07-10T03:00:33;2.85;;;0.75;;
49340;SDS011;35209;51.050;13.678;2022-07-10T03:05:34;5.80;;;0.82;;
49340;SDS011;35209;51.050;13.678;2022-07-10T03:10:36;4.18;;;0.70;;
49340;SDS011;35209;51.050;13.678;2022-07-10T03:15:38;3.33;;;0.93;;
49340;SDS011;35209;51.050;13.678;2022-07-10T03:20:40;2.65;;;0.77;;
49340;SDS011;35209;51.050;13.678;2022-07-10T03:25:41;4.95;;;0.80;;
49340;SDS011;35209;51.050;13.678;2022-07-10T03:30:43;4.32;;;0.80;;
49340;SDS011;35209;51.050;13.678;2022-07-10T03:35:45;3.85;;;1.17;;
49340;SDS011;35209;51.050;13.678;2022-07-10T03:40:46;3.72;;;1.02;;
49340;SDS011;35209;51.050;13.678;2022-07-10T03:45:49;2.90;;;0.85;;
49340;SDS011;35209;51.050;13.678;2022-07-10T03:50:52;2.95;;;0.60;;
49340;SDS011;35209;51.050;13.678;2022-07-10T03:55:53;4.30;;;0.70;;
49340;SDS011;35209;51.050;13.678;2022-07-10T04:00:55;4.10;;;0.50;;
49340;SDS011;35209;51.050;13.678;2022-07-10T04:05:57;4.32;;;0.75;;
49340;SDS011;35209;51.050;13.678;2022-07-10T04:10:58;3.60;;;0.60;;
49340;SDS011;35209;51.050;13.678;2022-07-10T04:16:00;6.00;;;0.75;;
49340;SDS011;35209;51.050;13.678;2022-07-10T04:21:02;3.50;;;0.65;;
49340;SDS011;35209;51.050;13.678;2022-07-10T04:26:03;10.13;;;1.00;;
49340;SDS011;35209;51.050;13.678;2022-07-10T04:31:05;3.88;;;0.75;;
49340;SDS011;35209;51.050;13.678;2022-07-10T04:36:07;4.47;;;0.52;;
49340;SDS011;35209;51.050;13.678;2022-07-10T04:41:09;5.00;;;1.00;;
49340;SDS011;35209;51.050;13.678;2022-07-10T04:46:11;3.80;;;0.95;;
49340;SDS011;35209;51.050;13.678;2022-07-10T04:51:12;3.22;;;0.55;;
49340;SDS011;35209;51.050;13.678;2022-07-10T04:56:15;5.78;;;0.88;;
49340;SDS011;35209;51.050;13.678;2022-07-10T05:01:16;3.22;;;0.88;;
49340;SDS011;35209;51.050;13.678;2022-07-10T05:06:18;2.40;;;0.70;;
49340;SDS011;35209;51.050;13.678;2022-07-10T05:11:20;3.35;;;1.05;;
49340;SDS011;35209;51.050;13.678;2022-07-10T05:16:21;2.88;;;0.50;;
49340;SDS011;35209;51.050;13.678;2022-07-10T05:21:23;5.32;;;1.00;;
49340;SDS011;35209;51.050;13.678;2022-07-10T05:26:26;1.42;;;0.60;;
49340;SDS011;35209;51.050;13.678;2022-07-10T05:31:28;4.03;;;0.95;;
49340;SDS011;35209;51.050;13.678;2022-07-10T05:36:30;3.47;;;0.98;;
49340;SDS011;35209;51.050;13.678;2022-07-10T05:41:32;2.88;;;0.77;;
49340;SDS011;35209;51.050;13.678;2022-07-10T05:46:34;4.20;;;0.82;;
49340;SDS011;35209;51.050;13.678;2022-07-10T05:51:36;4.78;;;0.90;;
49340;SDS011;35209;51.050;13.678;2022-07-10T05:56:45;6.35;;;0.70;;
49340;SDS011;35209;51.050;13.678;2022-07-10T06:01:47;3.60;;;0.85;;
49340;SDS011;35209;51.050;13.678;2022-07-10T06:06:49;2.75;;;0.70;;
49340;SDS011;35209;51.050;13.678;2022-07-10T06:11:50;2.10;;;0.47;;
49340;SDS011;35209;51.050;13.678;2022-07-10T06:16:52;2.03;;;0.50;;
49340;SDS011;35209;51.050;13.678;2022-07-10T06:21:54;1.70;;;0.47;;
49340;SDS011;35209;51.050;13.678;2022-07-10T06:27:14;2.17;;;0.57;;
49340;SDS011;35209;51.050;13.678;2022-07-10T06:32:16;2.30;;;0.80;;
49340;SDS011;35209;51.050;13.678;2022-07-10T06:37:18;3.35;;;0.68;;
49340;SDS011;35209;51.050;13.678;2022-07-10T06:42:20;1.45;;;0.60;;
49340;SDS011;35209;51.050;13.678;2022-07-10T06:47:23;2.47;;;0.80;;
49340;SDS011;35209;51.050;13.678;2022-07-10T06:52:44;1.50;;;0.50;;
49340;SDS011;35209;51.050;13.678;2022-07-10T06:57:47;2.72;;;0.90;;
49340;SDS011;35209;51.050;13.678;2022-07-10T07:02:49;0.77;;;0.35;;
49340;SDS011;35209;51.050;13.678;2022-07-10T07:07:51;2.33;;;0.40;;
49340;SDS011;35209;51.050;13.678;2022-07-10T07:12:52;0.80;;;0.30;;
49340;SDS011;35209;51.050;13.678;2022-07-10T07:17:54;1.90;;;0.63;;
49340;SDS011;35209;51.050;13.678;2022-07-10T07:23:09;2.05;;;0.52;;
49340;SDS011;35209;51.050;13.678;2022-07-10T07:28:11;1.15;;;0.35;;
49340;SDS011;35209;51.050;13.678;2022-07-10T07:33:12;1.73;;;0.40;;
49340;SDS011;35209;51.050;13.678;2022-07-10T07:38:14;1.38;;;0.30;;
49340;SDS011;35209;51.050;13.678;2022-07-10T07:43:17;1.02;;;0.30;;
49340;SDS011;35209;51.050;13.678;2022-07-10T07:48:18;3.58;;;0.70;;
49340;SDS011;35209;51.050;13.678;2022-07-10T07:53:20;1.05;;;0.40;;
49340;SDS011;35209;51.050;13.678;2022-07-10T07:58:22;3.08;;;0.50;;
49340;SDS011;35209;51.050;13.678;2022-07-10T08:03:23;2.15;;;0.50;;
49340;SDS011;35209;51.050;13.678;2022-07-10T08:08:45;8.48;;;0.63;;
49340;SDS011;35209;51.050;13.678;2022-07-10T08:13:47;1.15;;;0.40;;
49340;SDS011;35209;51.050;13.678;2022-07-10T08:18:49;3.20;;;0.68;;
49340;SDS011;35209;51.050;13.678;2022-07-10T08:23:52;2.22;;;0.50;;
49340;SDS011;35209;51.050;13.678;2022-07-10T08:28:54;1.40;;;0.38;;
49340;SDS011;35209;51.050;13.678;2022-07-10T08:33:56;1.65;;;0.65;;
49340;SDS011;35209;51.050;13.678;2022-07-10T08:38:58;3.95;;;0.80;;
49340;SDS011;35209;51.050;13.678;2022-07-10T08:44:00;2.28;;;0.82;;
49340;SDS011;35209;51.050;13.678;2022-07-10T08:49:02;2.55;;;0.52;;
49340;SDS011;35209;51.050;13.678;2022-07-10T08:54:10;2.35;;;0.65;;
49340;SDS011;35209;51.050;13.678;2022-07-10T08:59:22;2.80;;;0.70;;
49340;SDS011;35209;51.050;13.678;2022-07-10T09:04:31;2.70;;;0.77;;
49340;SDS011;35209;51.050;13.678;2022-07-10T09:09:37;2.33;;;0.52;;
49340;SDS011;35209;51.050;13.678;2022-07-10T09:14:52;1.98;;;0.60;;
49340;SDS011;35209;51.050;13.678;2022-07-10T09:19:54;3.00;;;0.52;;
49340;SDS011;35209;51.050;13.678;2022-07-10T09:24:56;1.23;;;0.40;;
49340;SDS011;35209;51.050;13.678;2022-07-10T09:30:13;2.50;;;0.55;;
49340;SDS011;35209;51.050;13.678;2022-07-10T09:35:33;2.65;;;0.70;;
49340;SDS011;35209;51.050;13.678;2022-07-10T09:40:53;2.78;;;0.57;;
49340;SDS011;35209;51.050;13.678;2022-07-10T09:45:55;2.38;;;0.65;;
49340;SDS011;35209;51.050;13.678;2022-07-10T09:50:56;3.63;;;0.82;;
49340;SDS011;35209;51.050;13.678;2022-07-10T09:55:59;2.97;;;0.80;;
49340;SDS011;35209;51.050;13.678;2022-07-10T10:01:03;1.80;;;0.60;;
49340;SDS011;35209;51.050;13.678;2022-07-10T10:06:15;3.28;;;0.95;;
49340;SDS011;35209;51.050;13.678;2022-07-10T10:11:19;2.03;;;0.60;;
49340;SDS011;35209;51.050;13.678;2022-07-10T10:16:24;3.00;;;0.82;;
49340;SDS011;35209;51.050;13.678;2022-07-10T10:21:33;3.08;;;0.82;;
49340;SDS011;35209;51.050;13.678;2022-07-10T10:26:37;2.95;;;0.80;;
49340;SDS011;35209;51.050;13.678;2022-07-10T10:31:38;3.17;;;0.90;;
49340;SDS011;35209;51.050;13.678;2022-07-10T10:36:42;2.92;;;0.70;;
49340;SDS011;35209;51.050;13.678;2022-07-10T10:41:49;3.50;;;0.80;;
49340;SDS011;35209;51.050;13.678;2022-07-10T10:52:04;4.78;;;1.30;;
49340;SDS011;35209;51.050;13.678;2022-07-10T10:57:17;5.55;;;1.38;;
49340;SDS011;35209;51.050;13.678;2022-07-10T11:02:24;3.40;;;1.17;;
49340;SDS011;35209;51.050;13.678;2022-07-10T11:07:52;3.72;;;1.20;;
49340;SDS011;35209;51.050;13.678;2022-07-10T11:18:07;9.53;;;1.43;;
49340;SDS011;35209;51.050;13.678;2022-07-10T11:33:54;4.43;;;0.98;;
49340;SDS011;35209;51.050;13.678;2022-07-10T11:39:01;5.70;;;1.00;;
49340;SDS011;35209;51.050;13.678;2022-07-10T11:44:05;3.03;;;0.88;;
49340;SDS011;35209;51.050;13.678;2022-07-10T11:49:07;4.38;;;1.10;;
49340;SDS011;35209;51.050;13.678;2022-07-10T11:54:11;4.28;;;0.80;;
49340;SDS011;35209;51.050;13.678;2022-07-10T11:59:14;5.53;;;0.95;;
49340;SDS011;35209;51.050;13.678;2022-07-10T12:04:20;3.60;;;0.80;;
49340;SDS011;35209;51.050;13.678;2022-07-10T12:09:25;4.55;;;2.15;;
49340;SDS011;35209;51.050;13.678;2022-07-10T12:14:27;4.22;;;0.98;;
49340;SDS011;35209;51.050;13.678;2022-07-10T12:19:30;3.08;;;1.05;;
49340;SDS011;35209;51.050;13.678;2022-07-10T12:24:37;5.13;;;0.77;;
49340;SDS011;35209;51.050;13.678;2022-07-10T12:29:39;8.27;;;0.98;;
49340;SDS011;35209;51.050;13.678;2022-07-10T12:34:41;6.97;;;1.17;;
49340;SDS011;35209;51.050;13.678;2022-07-10T12:39:52;3.30;;;0.82;;
49340;SDS011;35209;51.050;13.678;2022-07-10T12:45:08;3.60;;;1.17;;
49340;SDS011;35209;51.050;13.678;2022-07-10T12:50:14;4.15;;;1.00;;
49340;SDS011;35209;51.050;13.678;2022-07-10T12:55:20;6.22;;;1.10;;
49340;SDS011;35209;51.050;13.678;2022-07-10T13:00:24;5.10;;;1.10;;
49340;SDS011;35209;51.050;13.678;2022-07-10T13:05:36;2.78;;;0.75;;
49340;SDS011;35209;51.050;13.678;2022-07-10T13:10:40;3.17;;;1.00;;
49340;SDS011;35209;51.050;13.678;2022-07-10T13:15:43;3.13;;;0.90;;
49340;SDS011;35209;51.050;13.678;2022-07-10T13:20:52;3.70;;;1.00;;
49340;SDS011;35209;51.050;13.678;2022-07-10T13:26:02;4.68;;;1.02;;
49340;SDS011;35209;51.050;13.678;2022-07-10T13:31:05;2.72;;;1.20;;
49340;SDS011;35209;51.050;13.678;2022-07-10T13:36:07;5.97;;;1.00;;
49340;SDS011;35209;51.050;13.678;2022-07-10T13:41:09;2.58;;;0.73;;
49340;SDS011;35209;51.050;13.678;2022-07-10T13:46:10;3.42;;;0.85;;
49340;SDS011;35209;51.050;13.678;2022-07-10T13:51:12;5.38;;;0.90;;
49340;SDS011;35209;51.050;13.678;2022-07-10T13:56:14;4.03;;;0.95;;
49340;SDS011;35209;51.050;13.678;2022-07-10T14:01:17;2.88;;;0.80;;
49340;SDS011;35209;51.050;13.678;2022-07-10T14:06:19;5.13;;;1.13;;
49340;SDS011;35209;51.050;13.678;2022-07-10T14:11:21;3.88;;;0.90;;
49340;SDS011;35209;51.050;13.678;2022-07-10T14:16:23;3.80;;;1.13;;
49340;SDS011;35209;51.050;13.678;2022-07-10T14:21:26;5.40;;;0.98;;
49340;SDS011;35209;51.050;13.678;2022-07-10T14:26:28;3.67;;;1.20;;
49340;SDS011;35209;51.050;13.678;2022-07-10T14:31:30;3.28;;;1.02;;
49340;SDS011;35209;51.050;13.678;2022-07-10T14:36:33;4.65;;;1.23;;
49340;SDS011;35209;51.050;13.678;2022-07-10T14:41:34;5.22;;;1.42;;
49340;SDS011;35209;51.050;13.678;2022-07-10T14:46:36;4.18;;;1.00;;
49340;SDS011;35209;51.050;13.678;2022-07-10T14:51:38;5.05;;;1.05;;
49340;SDS011;35209;51.050;13.678;2022-07-10T14:56:40;4.15;;;0.93;;
49340;SDS011;35209;51.050;13.678;2022-07-10T15:01:44;3.22;;;1.05;;
49340;SDS011;35209;51.050;13.678;2022-07-10T15:06:46;4.13;;;1.20;;
49340;SDS011;35209;51.050;13.678;2022-07-10T15:11:48;4.72;;;0.90;;
49340;SDS011;35209;51.050;13.678;2022-07-10T15:16:50;2.80;;;0.93;;
49340;SDS011;35209;51.050;13.678;2022-07-10T15:21:52;4.65;;;1.15;;
49340;SDS011;35209;51.050;13.678;2022-07-10T15:26:53;6.60;;;0.80;;
49340;SDS011;35209;51.050;13.678;2022-07-10T15:31:55;5.15;;;1.00;;
49340;SDS011;35209;51.050;13.678;2022-07-10T15:36:59;2.33;;;0.70;;
49340;SDS011;35209;51.050;13.678;2022-07-10T15:42:01;5.18;;;1.27;;
49340;SDS011;35209;51.050;13.678;2022-07-10T15:47:04;4.50;;;1.42;;
49340;SDS011;35209;51.050;13.678;2022-07-10T15:52:06;6.93;;;1.52;;
49340;SDS011;35209;51.050;13.678;2022-07-10T15:57:08;8.43;;;1.55;;
49340;SDS011;35209;51.050;13.678;2022-07-10T16:02:20;3.33;;;1.13;;
49340;SDS011;35209;51.050;13.678;2022-07-10T16:07:22;4.22;;;1.13;;
49340;SDS011;35209;51.050;13.678;2022-07-10T16:12:24;4.55;;;1.20;;
49340;SDS011;35209;51.050;13.678;2022-07-10T16:17:26;5.72;;;1.33;;
49340;SDS011;35209;51.050;13.678;2022-07-10T16:22:27;3.70;;;1.10;;
49340;SDS011;35209;51.050;13.678;2022-07-10T16:27:29;6.13;;;1.05;;
49340;SDS011;35209;51.050;13.678;2022-07-10T16:32:31;3.80;;;1.08;;
49340;SDS011;35209;51.050;13.678;2022-07-10T16:37:32;7.78;;;2.58;;
49340;SDS011;35209;51.050;13.678;2022-07-10T16:42:34;5.22;;;3.05;;
49340;SDS011;35209;51.050;13.678;2022-07-10T16:47:36;4.13;;;1.10;;
49340;SDS011;35209;51.050;13.678;2022-07-10T16:52:38;9.02;;;1.45;;
49340;SDS011;35209;51.050;13.678;2022-07-10T16:57:42;5.00;;;2.03;;
49340;SDS011;35209;51.050;13.678;2022-07-10T17:02:44;4.22;;;1.52;;
49340;SDS011;35209;51.050;13.678;2022-07-10T17:07:46;3.10;;;1.13;;
49340;SDS011;35209;51.050;13.678;2022-07-10T17:12:48;5.18;;;1.40;;
49340;SDS011;35209;51.050;13.678;2022-07-10T17:17:52;4.65;;;1.83;;
49340;SDS011;35209;51.050;13.678;2022-07-10T17:22:55;2.45;;;1.40;;
49340;SDS011;35209;51.050;13.678;2022-07-10T17:27:56;6.15;;;1.40;;
49340;SDS011;35209;51.050;13.678;2022-07-10T17:32:58;4.47;;;1.80;;
49340;SDS011;35209;51.050;13.678;2022-07-10T17:38:06;3.42;;;1.05;;
49340;SDS011;35209;51.050;13.678;2022-07-10T17:43:10;4.30;;;1.00;;
49340;SDS011;35209;51.050;13.678;2022-07-10T17:48:12;4.38;;;1.13;;
49340;SDS011;35209;51.050;13.678;2022-07-10T17:53:14;3.90;;;1.77;;
49340;SDS011;35209;51.050;13.678;2022-07-10T17:58:15;5.82;;;1.77;;
49340;SDS011;35209;51.050;13.678;2022-07-10T18:03:17;9.10;;;1.80;;
49340;SDS011;35209;51.050;13.678;2022-07-10T18:08:19;5.32;;;1.60;;
49340;SDS011;35209;51.050;13.678;2022-07-10T18:13:22;8.65;;;1.80;;
49340;SDS011;35209;51.050;13.678;2022-07-10T18:18:24;7.65;;;1.40;;
49340;SDS011;35209;51.050;13.678;2022-07-10T18:23:26;4.22;;;1.13;;
49340;SDS011;35209;51.050;13.678;2022-07-10T18:28:28;5.85;;;1.20;;
49340;SDS011;35209;51.050;13.678;2022-07-10T18:33:29;3.67;;;1.13;;
49340;SDS011;35209;51.050;13.678;2022-07-10T18:39:02;4.30;;;1.35;;
49340;SDS011;35209;51.050;13.678;2022-07-10T18:44:17;4.15;;;1.08;;
49340;SDS011;35209;51.050;13.678;2022-07-10T18:49:19;5.65;;;1.40;;
49340;SDS011;35209;51.050;13.678;2022-07-10T18:54:23;5.00;;;1.15;;
49340;SDS011;35209;51.050;13.678;2022-07-10T18:59:25;5.80;;;1.23;;
49340;SDS011;35209;51.050;13.678;2022-07-10T19:04:31;3.15;;;1.08;;
49340;SDS011;35209;51.050;13.678;2022-07-10T19:09:33;3.65;;;1.10;;
49340;SDS011;35209;51.050;13.678;2022-07-10T19:14:35;3.58;;;1.20;;
49340;SDS011;35209;51.050;13.678;2022-07-10T19:19:37;5.25;;;1.15;;
49340;SDS011;35209;51.050;13.678;2022-07-10T19:24:39;5.53;;;1.70;;
49340;SDS011;35209;51.050;13.678;2022-07-10T19:29:41;3.20;;;1.00;;
49340;SDS011;35209;51.050;13.678;2022-07-10T19:34:43;4.47;;;1.27;;
49340;SDS011;35209;51.050;13.678;2022-07-10T19:39:46;4.60;;;1.30;;
49340;SDS011;35209;51.050;13.678;2022-07-10T19:44:50;3.95;;;1.55;;
49340;SDS011;35209;51.050;13.678;2022-07-10T19:49:52;6.03;;;1.30;;
49340;SDS011;35209;51.050;13.678;2022-07-10T19:54:56;6.88;;;1.45;;
49340;SDS011;35209;51.050;13.678;2022-07-10T19:59:58;5.82;;;1.30;;
49340;SDS011;35209;51.050;13.678;2022-07-10T20:04:59;4.57;;;0.88;;
49340;SDS011;35209;51.050;13.678;2022-07-10T20:10:01;5.03;;;0.80;;
49340;SDS011;35209;51.050;13.678;2022-07-10T20:15:04;5.47;;;1.15;;
49340;SDS011;35209;51.050;13.678;2022-07-10T20:20:07;2.35;;;0.88;;
49340;SDS011;35209;51.050;13.678;2022-07-10T20:25:11;5.03;;;1.20;;
49340;SDS011;35209;51.050;13.678;2022-07-10T20:30:12;4.88;;;1.40;;
49340;SDS011;35209;51.050;13.678;2022-07-10T20:35:15;4.28;;;1.00;;
49340;SDS011;35209;51.050;13.678;2022-07-10T20:40:18;4.07;;;1.00;;
49340;SDS011;35209;51.050;13.678;2022-07-10T20:45:20;2.95;;;0.70;;
49340;SDS011;35209;51.050;13.678;2022-07-10T20:50:22;2.53;;;0.90;;
49340;SDS011;35209;51.050;13.678;2022-07-10T20:55:24;5.10;;;1.00;;
49340;SDS011;35209;51.050;13.678;2022-07-10T21:00:26;2.90;;;0.77;;
49340;SDS011;35209;51.050;13.678;2022-07-10T21:05:28;3.17;;;0.90;;
49340;SDS011;35209;51.050;13.678;2022-07-10T21:10:33;5.35;;;1.25;;
49340;SDS011;35209;51.050;13.678;2022-07-10T21:15:45;3.17;;;0.80;;
49340;SDS011;35209;51.050;13.678;2022-07-10T21:20:47;4.38;;;1.00;;
49340;SDS011;35209;51.050;13.678;2022-07-10T21:25:49;3.63;;;0.98;;
49340;SDS011;35209;51.050;13.678;2022-07-10T21:30:51;3.97;;;0.95;;
49340;SDS011;35209;51.050;13.678;2022-07-10T21:35:53;3.70;;;1.13;;
49340;SDS011;35209;51.050;13.678;2022-07-10T21:40:54;4.32;;;0.90;;
49340;SDS011;35209;51.050;13.678;2022-07-10T21:45:56;2.63;;;0.90;;
49340;SDS011;35209;51.050;13.678;2022-07-10T21:50:58;5.40;;;1.10;;
49340;SDS011;35209;51.050;13.678;2022-07-10T21:56:03;4.25;;;0.82;;
49340;SDS011;35209;51.050;13.678;2022-07-10T22:01:05;2.53;;;0.80;;
49340;SDS011;35209;51.050;13.678;2022-07-10T22:06:07;3.80;;;0.98;;
49340;SDS011;35209;51.050;13.678;2022-07-10T22:11:08;5.90;;;0.80;;
49340;SDS011;35209;51.050;13.678;2022-07-10T22:16:10;3.08;;;0.80;;
49340;SDS011;35209;51.050;13.678;2022-07-10T22:21:14;2.72;;;0.80;;
49340;SDS011;35209;51.050;13.678;2022-07-10T22:26:16;5.43;;;1.00;;
49340;SDS011;35209;51.050;13.678;2022-07-10T22:31:18;3.30;;;0.90;;
49340;SDS011;35209;51.050;13.678;2022-07-10T22:36:23;2.08;;;0.88;;
49340;SDS011;35209;51.050;13.678;2022-07-10T22:41:26;2.35;;;0.77;;
49340;SDS011;35209;51.050;13.678;2022-07-10T22:46:29;3.20;;;0.98;;
49340;SDS011;35209;51.050;13.678;2022-07-10T22:51:31;5.38;;;1.17;;
49340;SDS011;35209;51.050;13.678;2022-07-10T22:56:33;3.33;;;0.73;;
49340;SDS011;35209;51.050;13.678;2022-07-10T23:01:34;2.40;;;0.80;;
49340;SDS011;35209;51.050;13.678;2022-07-10T23:06:36;2.20;;;0.90;;
49340;SDS011;35209;51.050;13.678;2022-07-10T23:11:38;3.38;;;0.90;;
49340;SDS011;35209;51.050;13.678;2022-07-10T23:16:41;4.15;;;0.95;;
49340;SDS011;35209;51.050;13.678;2022-07-10T23:21:42;2.22;;;0.80;;
49340;SDS011;35209;51.050;13.678;2022-07-10T23:26:44;3.38;;;1.15;;
49340;SDS011;35209;51.050;13.678;2022-07-10T23:31:46;2.10;;;0.90;;
49340;SDS011;35209;51.050;13.678;2022-07-10T23:36:48;2.05;;;0.77;;
49340;SDS011;35209;51.050;13.678;2022-07-10T23:41:52;4.13;;;0.60;;
49340;SDS011;35209;51.050;13.678;2022-07-10T23:46:54;4.38;;;0.75;;
49340;SDS011;35209;51.050;13.678;2022-07-10T23:51:56;2.42;;;0.90;;
49340;SDS011;35209;51.050;13.678;2022-07-10T23:56:58;1.27;;;0.60;;
